createdAt,value
2019-05-17T00:04:08.783Z,67.20
2019-05-17T00:07:16.984Z,68.00
2019-05-17T00:10:06.743Z,68.00
2019-05-17T00:15:38.106Z,68.30
2019-05-17T00:21:03.603Z,68.80
2019-05-17T00:26:29.641Z,68.70
2019-05-17T00:34:50.678Z,68.80
2019-05-17T00:40:16.917Z,68.50
2019-05-17T00:45:43.661Z,68.50
2019-05-17T00:51:10.946Z,68.30
2019-05-17T00:56:37.314Z,68.20
2019-05-17T01:02:02.695Z,68.50
2019-05-17T01:07:28.339Z,68.20
2019-05-17T01:12:54.311Z,68.40
2019-05-17T01:18:20.382Z,68.20
2019-05-17T01:23:47.938Z,68.40
2019-05-17T01:29:17.515Z,68.20
2019-05-17T01:34:43.923Z,68.30
2019-05-17T01:40:10.660Z,67.50
2019-05-17T01:45:37.198Z,68.40
2019-05-17T01:50:51.137Z,68.30
2019-05-17T01:53:41.577Z,68.10
2019-05-17T01:56:30.839Z,68.40
2019-05-17T02:09:33.794Z,68.60
2019-05-17T02:12:11.926Z,68.10
2019-05-17T02:15:00.821Z,68.30
2019-05-17T02:17:51.098Z,69.40
2019-05-17T02:21:01.295Z,68.20
2019-05-17T02:23:50.187Z,68.50
2019-05-17T02:26:40.320Z,68.80
2019-05-17T02:29:32.055Z,68.70
2019-05-17T02:32:23.504Z,68.50
2019-05-17T02:35:14.554Z,68.50
2019-05-17T02:38:04.441Z,68.90
2019-05-17T02:40:54.116Z,69.10
2019-05-17T02:43:43.497Z,68.70
2019-05-17T02:46:34.930Z,68.70
2019-05-17T02:49:24.530Z,68.90
2019-05-17T02:51:54.972Z,68.70
2019-05-17T02:54:43.873Z,68.00
2019-05-17T02:57:14.433Z,67.60
2019-05-17T03:00:04.849Z,67.70
2019-05-17T03:02:54.855Z,68.10
2019-05-17T03:09:12.399Z,68.30
2019-05-17T03:12:03.475Z,68.60
2019-05-17T03:14:52.843Z,68.60
2019-05-17T03:18:03.847Z,68.60
2019-05-17T03:20:52.830Z,68.80
2019-05-17T03:23:32.961Z,68.90
2019-05-17T03:26:07.063Z,68.90
2019-05-17T03:28:42.684Z,69.20
2019-05-17T03:31:40.769Z,69.40
2019-05-17T03:34:44.886Z,69.50
2019-05-17T03:37:37.717Z,69.30
2019-05-17T03:40:56.493Z,69.10
2019-05-17T03:42:56.582Z,69.10
2019-05-17T03:45:46.774Z,69.00
2019-05-17T03:51:42.498Z,69.10
2019-05-17T03:54:14.067Z,68.90
2019-05-17T03:56:47.189Z,68.40
2019-05-17T03:59:39.424Z,68.20
2019-05-17T04:02:12.423Z,67.80
2019-05-17T04:05:22.742Z,67.60
2019-05-17T04:08:13.940Z,67.80
2019-05-17T04:11:20.730Z,68.40
2019-05-17T04:13:54.220Z,68.30
2019-05-17T04:16:44.241Z,68.30
2019-05-17T04:19:34.751Z,68.60
2019-05-17T04:22:44.970Z,68.90
2019-05-17T04:25:54.064Z,68.80
2019-05-17T04:28:24.340Z,68.80
2019-05-17T04:31:14.211Z,69.20
2019-05-17T04:34:04.593Z,69.40
2019-05-17T04:37:13.717Z,69.10
2019-05-17T04:39:44.587Z,69.20
2019-05-17T04:42:33.430Z,69.10
2019-05-17T04:45:04.057Z,69.20
2019-05-17T04:47:53.305Z,69.80
2019-05-17T04:51:05.954Z,69.90
2019-05-17T04:53:36.048Z,70.00
2019-05-17T04:56:22.458Z,70.20
2019-05-17T04:58:54.154Z,70.40
2019-05-17T05:01:24.875Z,70.70
2019-05-17T05:04:15.526Z,70.60
2019-05-17T05:06:46.866Z,70.50
2019-05-17T05:09:42.927Z,71.80
2019-05-17T05:12:16.677Z,70.70
2019-05-17T05:15:15.660Z,71.00
2019-05-17T05:18:23.598Z,71.10
2019-05-17T05:20:53.798Z,71.40
2019-05-17T05:23:24.291Z,71.30
2019-05-17T05:25:54.598Z,71.50
2019-05-17T05:28:26.367Z,71.40
2019-05-17T05:30:57.878Z,71.20
2019-05-17T05:34:07.204Z,71.00
2019-05-17T05:36:57.427Z,71.00
2019-05-17T05:39:28.024Z,70.70
2019-05-17T05:42:07.020Z,70.70
2019-05-17T05:44:32.180Z,71.10
2019-05-17T05:47:02.363Z,71.20
2019-05-17T05:49:32.778Z,71.10
2019-05-17T05:52:04.062Z,71.40
2019-05-17T05:54:34.195Z,71.50
2019-05-17T05:57:04.508Z,71.40
2019-05-17T05:59:35.466Z,71.30
2019-05-17T06:02:05.559Z,71.20
2019-05-17T06:04:37.943Z,71.20
2019-05-17T06:07:08.562Z,70.90
2019-05-17T06:09:38.702Z,70.50
2019-05-17T06:12:28.239Z,70.50
2019-05-17T06:14:58.744Z,70.20
2019-05-17T06:17:28.780Z,70.40
2019-05-17T06:19:58.826Z,70.30
2019-05-17T06:22:28.789Z,70.30
2019-05-17T06:24:58.856Z,70.60
2019-05-17T06:27:51.985Z,70.40
2019-05-17T06:30:22.097Z,70.10
2019-05-17T06:32:52.651Z,71.00
2019-05-17T06:35:23.327Z,70.30
2019-05-17T06:37:54.180Z,70.00
2019-05-17T06:40:43.392Z,68.50
2019-05-17T06:43:15.971Z,68.40
2019-05-17T06:45:46.358Z,68.30
2019-05-17T06:48:16.962Z,68.30
2019-05-17T06:51:08.121Z,68.60
2019-05-17T06:53:38.551Z,68.60
2019-05-17T06:56:09.100Z,68.70
2019-05-17T06:58:58.441Z,68.00
2019-05-17T07:04:14.418Z,68.70
2019-05-17T07:06:45.961Z,68.50
2019-05-17T07:09:36.132Z,68.10
2019-05-17T07:12:06.460Z,67.40
2019-05-17T07:14:36.493Z,67.90
2019-05-17T07:17:27.118Z,68.30
2019-05-17T07:20:16.409Z,67.90
2019-05-17T07:22:46.565Z,66.90
2019-05-17T07:25:19.646Z,66.30
2019-05-17T07:27:50.300Z,65.00
2019-05-17T07:30:21.610Z,64.30
2019-05-17T07:32:51.459Z,64.20
2019-05-17T07:35:40.838Z,64.20
2019-05-17T07:38:30.205Z,63.70
2019-05-17T07:41:03.602Z,63.70
2019-05-17T07:43:33.797Z,63.60
2019-05-17T07:46:22.984Z,63.10
2019-05-17T07:48:54.942Z,64.40
2019-05-17T07:51:25.083Z,63.40
2019-05-17T07:53:55.490Z,62.80
2019-05-17T07:56:27.455Z,63.20
2019-05-17T07:59:00.048Z,63.10
2019-05-17T08:01:30.455Z,62.50
2019-05-17T08:04:02.572Z,61.80
2019-05-17T08:06:32.723Z,61.90
2019-05-17T08:09:21.807Z,61.70
2019-05-17T08:12:11.248Z,61.60
2019-05-17T08:14:41.725Z,61.00
2019-05-17T08:17:11.652Z,61.30
2019-05-17T08:19:43.408Z,61.00
2019-05-17T08:22:13.437Z,60.30
2019-05-17T08:24:45.494Z,61.30
2019-05-17T08:27:15.499Z,61.30
2019-05-17T08:29:45.611Z,62.00
2019-05-17T08:32:15.609Z,61.10
2019-05-17T08:34:49.484Z,61.80
2019-05-17T08:37:37.261Z,61.70
2019-05-17T08:40:10.492Z,61.60
2019-05-17T08:42:40.736Z,61.20
2019-05-17T08:45:12.237Z,60.60
2019-05-17T08:48:01.047Z,60.50
2019-05-17T08:50:31.713Z,59.20
2019-05-17T08:53:02.147Z,59.40
2019-05-17T08:55:42.262Z,58.70
2019-05-17T08:58:14.781Z,59.60
2019-05-17T09:00:45.450Z,59.30
2019-05-17T09:03:15.417Z,59.50
2019-05-17T09:05:45.976Z,58.30
2019-05-17T09:08:16.434Z,58.10
2019-05-17T09:11:06.236Z,57.00
2019-05-17T09:13:36.391Z,58.70
2019-05-17T09:16:30.557Z,57.40
2019-05-17T09:19:00.481Z,57.80
2019-05-17T09:21:31.570Z,57.60
2019-05-17T09:24:06.225Z,56.40
2019-05-17T09:26:36.331Z,55.90
2019-05-17T09:29:10.718Z,56.30
2019-05-17T09:31:40.634Z,55.40
2019-05-17T09:34:10.801Z,56.70
2019-05-17T09:37:03.331Z,54.90
2019-05-17T09:39:53.997Z,55.40
2019-05-17T09:42:43.473Z,56.50
2019-05-17T09:45:13.823Z,55.50
2019-05-17T09:47:45.417Z,55.60
2019-05-17T09:50:36.409Z,55.50
2019-05-17T09:53:26.503Z,54.40
2019-05-17T09:56:15.668Z,54.50
2019-05-17T09:58:45.749Z,54.80
2019-05-17T10:01:15.951Z,55.00
2019-05-17T10:03:50.388Z,55.10
2019-05-17T10:06:20.530Z,54.70
2019-05-17T10:08:51.463Z,54.00
2019-05-17T10:11:22.545Z,54.70
2019-05-17T10:13:52.605Z,55.60
2019-05-17T10:16:22.436Z,55.20
2019-05-17T10:18:52.947Z,53.70
2019-05-17T10:21:25.832Z,55.00
2019-05-17T10:23:56.144Z,53.00
2019-05-17T10:26:26.230Z,53.90
2019-05-17T10:28:56.381Z,54.40
2019-05-17T10:31:26.459Z,51.70
2019-05-17T10:34:16.055Z,52.40
2019-05-17T10:36:46.528Z,50.10
2019-05-17T10:39:19.265Z,51.00
2019-05-17T10:41:50.065Z,50.10
2019-05-17T10:44:47.178Z,51.00
2019-05-17T10:47:13.736Z,52.30
2019-05-17T10:49:43.988Z,51.90
2019-05-17T10:52:15.090Z,52.20
2019-05-17T10:54:45.732Z,51.10
2019-05-17T10:57:16.562Z,50.60
2019-05-17T10:59:47.235Z,51.40
2019-05-17T11:02:36.623Z,50.50
2019-05-17T11:05:07.256Z,49.10
2019-05-17T11:07:37.963Z,49.70
2019-05-17T11:10:11.900Z,50.50
2019-05-17T11:12:42.331Z,49.80
2019-05-17T11:15:12.796Z,49.50
2019-05-17T11:17:52.428Z,49.10
2019-05-17T11:20:22.573Z,48.80
2019-05-17T11:22:53.033Z,50.20
2019-05-17T11:25:24.802Z,49.20
2019-05-17T11:27:57.370Z,49.00
2019-05-17T11:30:27.599Z,47.10
2019-05-17T11:32:57.760Z,46.90
2019-05-17T11:35:47.195Z,48.40
2019-05-17T11:38:20.789Z,49.70
2019-05-17T11:40:51.694Z,49.50
2019-05-17T11:43:24.016Z,48.10
2019-05-17T11:46:09.586Z,47.90
2019-05-17T11:48:26.517Z,48.30
2019-05-17T11:51:18.921Z,49.80
2019-05-17T11:53:50.511Z,49.90
2019-05-17T11:56:20.778Z,47.40
2019-05-17T11:58:51.027Z,47.10
2019-05-17T12:01:21.366Z,47.10
2019-05-17T12:04:10.929Z,46.50
2019-05-17T12:06:41.848Z,47.00
2019-05-17T12:09:37.264Z,46.10
2019-05-17T12:12:03.581Z,46.60
2019-05-17T12:14:34.915Z,48.10
2019-05-17T12:17:44.678Z,47.50
2019-05-17T12:20:34.373Z,46.30
2019-05-17T12:23:04.679Z,48.50
2019-05-17T12:25:35.415Z,49.10
2019-05-17T12:28:26.844Z,46.80
2019-05-17T12:31:00.266Z,46.30
2019-05-17T12:33:49.794Z,46.50
2019-05-17T12:36:22.409Z,47.40
2019-05-17T12:38:53.181Z,46.90
2019-05-17T12:41:25.488Z,47.90
2019-05-17T12:44:15.683Z,46.40
2019-05-17T12:46:46.774Z,45.60
2019-05-17T12:49:17.243Z,45.30
2019-05-17T12:51:48.606Z,45.70
2019-05-17T12:54:18.868Z,45.70
2019-05-17T12:56:49.252Z,46.10
2019-05-17T12:59:38.967Z,45.90
2019-05-17T13:02:28.334Z,45.20
2019-05-17T13:04:58.435Z,44.60
2019-05-17T13:07:48.960Z,44.50
2019-05-17T13:10:42.524Z,42.80
2019-05-17T13:16:27.408Z,43.10
2019-05-17T13:19:15.562Z,43.90
2019-05-17T13:21:51.571Z,43.60
2019-05-17T13:24:21.930Z,44.30
2019-05-17T13:26:52.810Z,44.30
2019-05-17T13:29:42.429Z,41.70
2019-05-17T13:32:12.728Z,43.60
2019-05-17T13:35:02.338Z,41.80
2019-05-17T13:37:33.016Z,42.90
2019-05-17T13:40:03.657Z,40.70
2019-05-17T13:42:34.434Z,41.00
2019-05-17T13:45:05.206Z,39.70
2019-05-17T13:47:35.236Z,41.10
2019-05-17T13:50:27.045Z,40.00
2019-05-17T13:52:59.245Z,41.40
2019-05-17T13:55:50.410Z,39.80
2019-05-17T13:58:20.868Z,41.00
2019-05-17T14:00:51.301Z,38.70
2019-05-17T14:03:23.297Z,39.70
2019-05-17T14:05:53.339Z,38.20
2019-05-17T14:08:24.081Z,37.80
2019-05-17T14:10:54.293Z,37.80
2019-05-17T14:13:24.957Z,38.00
2019-05-17T14:15:55.120Z,37.40
2019-05-17T14:18:37.297Z,36.20
2019-05-17T14:23:54.774Z,36.60
2019-05-17T14:26:44.847Z,37.30
2019-05-17T14:29:19.303Z,37.30
2019-05-17T14:32:09.900Z,37.60
2019-05-17T14:35:02.859Z,36.60
2019-05-17T14:37:36.608Z,36.90
2019-05-17T14:41:04.134Z,37.10
2019-05-17T14:43:23.386Z,36.90
2019-05-17T14:45:54.466Z,34.40
2019-05-17T14:48:25.496Z,34.90
2019-05-17T14:50:57.567Z,35.00
2019-05-17T14:53:28.513Z,34.80
2019-05-17T14:56:00.902Z,32.50
2019-05-17T14:58:31.218Z,32.00
2019-05-17T15:01:01.547Z,33.10
2019-05-17T15:03:54.336Z,32.90
2019-05-17T15:06:44.556Z,34.70
2019-05-17T15:09:15.147Z,35.00
2019-05-17T15:12:08.291Z,34.60
2019-05-17T15:14:59.711Z,35.70
2019-05-17T15:17:34.747Z,33.40
2019-05-17T15:20:02.829Z,35.00
2019-05-17T15:22:33.911Z,33.50
2019-05-17T15:25:04.189Z,34.20
2019-05-17T15:27:39.355Z,33.90
2019-05-17T15:30:09.557Z,34.80
2019-05-17T15:32:39.607Z,32.90
2019-05-17T15:35:29.292Z,32.60
2019-05-17T15:38:00.941Z,33.30
2019-05-17T15:40:35.017Z,34.40
2019-05-17T15:43:05.532Z,32.90
2019-05-17T15:45:36.436Z,37.20
2019-05-17T15:48:07.492Z,36.50
2019-05-17T15:50:37.579Z,32.20
2019-05-17T15:53:07.898Z,32.60
2019-05-17T15:55:38.388Z,33.20
2019-05-17T15:58:09.044Z,32.30
2019-05-17T16:01:04.655Z,32.70
2019-05-17T16:03:35.317Z,31.30
2019-05-17T16:06:05.710Z,31.30
2019-05-17T16:08:35.899Z,31.30
2019-05-17T16:11:06.060Z,32.80
2019-05-17T16:13:58.540Z,31.80
2019-05-17T16:16:28.760Z,31.70
2019-05-17T16:19:18.262Z,31.80
2019-05-17T16:21:52.030Z,31.60
2019-05-17T16:24:24.986Z,32.30
2019-05-17T16:26:56.226Z,33.30
2019-05-17T16:29:27.228Z,35.10
2019-05-17T16:32:16.835Z,36.00
2019-05-17T16:34:47.983Z,35.70
2019-05-17T16:37:42.263Z,37.00
2019-05-17T16:40:14.067Z,36.50
2019-05-17T16:42:47.727Z,36.40
2019-05-17T16:45:22.099Z,38.10
2019-05-17T16:47:52.793Z,37.00
2019-05-17T16:50:24.518Z,38.10
2019-05-17T16:53:15.430Z,38.20
2019-05-17T16:55:46.657Z,38.80
2019-05-17T16:58:17.762Z,38.70
2019-05-17T17:00:49.411Z,38.90
2019-05-17T17:03:44.357Z,38.40
2019-05-17T17:06:13.570Z,38.00
2019-05-17T17:09:04.988Z,38.50
2019-05-17T17:11:52.206Z,38.70
2019-05-17T17:14:27.841Z,39.30
2019-05-17T17:16:59.000Z,39.60
2019-05-17T17:19:29.534Z,39.40
2019-05-17T17:22:18.451Z,39.60
2019-05-17T17:24:49.662Z,40.30
2019-05-17T17:27:32.178Z,41.30
2019-05-17T17:32:47.570Z,42.20
2019-05-17T17:35:36.841Z,43.10
2019-05-17T17:38:08.468Z,43.60
2019-05-17T17:40:57.808Z,43.90
2019-05-17T17:43:28.404Z,44.90
2019-05-17T17:46:00.896Z,44.70
2019-05-17T17:48:31.079Z,44.80
2019-05-17T17:51:01.511Z,45.70
2019-05-17T17:53:51.234Z,45.70
2019-05-17T17:56:21.459Z,45.30
2019-05-17T17:58:51.174Z,45.40
2019-05-17T18:01:52.864Z,45.70
2019-05-17T18:04:25.601Z,46.70
2019-05-17T18:06:56.759Z,46.20
2019-05-17T18:09:27.106Z,45.70
2019-05-17T18:12:19.379Z,45.80
2019-05-17T18:14:50.602Z,45.30
2019-05-17T18:17:22.056Z,45.80
2019-05-17T18:19:52.507Z,46.20
2019-05-17T18:22:43.823Z,46.70
2019-05-17T18:25:15.416Z,46.80
2019-05-17T18:27:46.784Z,46.50
2019-05-17T18:30:37.849Z,46.50
2019-05-17T18:33:09.750Z,46.20
2019-05-17T18:35:43.427Z,46.50
2019-05-17T18:38:35.594Z,47.50
2019-05-17T18:41:06.881Z,47.70
2019-05-17T18:43:38.565Z,48.00
2019-05-17T18:46:49.506Z,48.20
2019-05-17T18:49:21.179Z,48.10
2019-05-17T18:51:53.465Z,48.40
2019-05-17T18:54:46.284Z,48.40
2019-05-17T18:57:16.991Z,48.60
2019-05-17T18:59:51.101Z,49.50
2019-05-17T19:02:28.534Z,49.60
2019-05-17T19:04:58.808Z,50.00
2019-05-17T19:07:29.842Z,50.90
2019-05-17T19:09:59.964Z,50.50
2019-05-17T19:12:30.027Z,50.90
2019-05-17T19:15:00.820Z,52.10
2019-05-17T19:17:31.657Z,52.70
2019-05-17T19:20:01.759Z,53.50
2019-05-17T19:22:51.439Z,54.80
2019-05-17T19:25:22.088Z,56.40
2019-05-17T19:28:34.385Z,55.90
2019-05-17T19:31:08.312Z,56.70
2019-05-17T19:37:02.861Z,61.40
2019-05-17T19:42:37.265Z,62.60
2019-05-17T19:45:10.863Z,63.30
2019-05-17T19:47:43.360Z,64.70
2019-05-17T19:50:39.047Z,64.70
2019-05-17T19:53:28.549Z,65.30
2019-05-17T19:59:06.978Z,67.00
2019-05-17T20:02:00.891Z,67.00
2019-05-17T20:04:50.374Z,66.60
2019-05-17T20:07:20.903Z,65.90
2019-05-17T20:10:11.076Z,66.50
2019-05-17T20:12:41.655Z,66.80
2019-05-17T20:15:17.943Z,66.90
2019-05-17T20:18:03.480Z,66.80
2019-05-17T20:20:53.233Z,67.40
2019-05-17T20:23:23.605Z,68.20
2019-05-17T20:26:13.562Z,68.70
2019-05-17T20:28:44.428Z,68.50
2019-05-17T20:31:18.312Z,69.10
2019-05-17T20:34:09.157Z,69.20
2019-05-17T20:36:39.406Z,69.30
2019-05-17T20:39:31.108Z,69.50
2019-05-17T20:42:43.513Z,69.80
2019-05-17T20:45:35.230Z,69.60
2019-05-17T20:48:07.709Z,70.00
2019-05-17T20:50:38.480Z,70.40
2019-05-17T20:53:18.713Z,70.80
2019-05-17T20:56:02.338Z,71.20
2019-05-17T20:58:54.204Z,71.00
2019-05-17T21:01:25.263Z,71.40
2019-05-17T21:04:01.621Z,71.30
2019-05-17T21:06:52.834Z,71.50
2019-05-17T21:09:42.674Z,71.60
2019-05-17T21:12:15.667Z,72.50
2019-05-17T21:14:47.520Z,72.60
2019-05-17T21:17:18.061Z,72.40
2019-05-17T21:20:10.694Z,72.50
2019-05-17T21:23:02.568Z,72.50
2019-05-17T21:25:53.143Z,72.60
2019-05-17T21:28:25.003Z,72.90
2019-05-17T21:31:14.581Z,73.00
2019-05-17T21:44:22.052Z,72.90
2019-05-17T21:47:05.157Z,73.40
2019-05-17T21:49:47.947Z,73.40
2019-05-17T21:52:30.303Z,73.50
2019-05-17T21:58:02.018Z,73.10
2019-05-17T22:03:34.856Z,73.20
2019-05-17T22:06:06.463Z,73.00
2019-05-17T22:12:21.075Z,73.50
2019-05-17T22:17:42.891Z,73.70
2019-05-17T22:20:32.451Z,73.60
2019-05-17T22:23:22.080Z,73.90
2019-05-17T22:29:26.919Z,73.90
2019-05-17T22:32:17.991Z,73.70
2019-05-17T22:35:08.560Z,73.90
2019-05-17T22:37:58.761Z,74.00
2019-05-17T22:40:49.187Z,74.10
2019-05-17T22:43:58.468Z,74.10
2019-05-17T22:46:48.677Z,74.50
2019-05-17T22:49:41.505Z,74.80
2019-05-17T22:52:31.912Z,74.70
2019-05-17T22:55:26.147Z,74.20
2019-05-17T22:58:15.685Z,74.60
2019-05-17T23:03:41.392Z,74.90
2019-05-17T23:09:33.123Z,74.70
2019-05-17T23:14:40.718Z,74.80
2019-05-17T23:20:10.316Z,74.80
2019-05-17T23:25:44.231Z,74.40
2019-05-17T23:28:33.647Z,74.20
2019-05-17T23:31:23.319Z,74.30
2019-05-17T23:34:32.432Z,74.20
2019-05-17T23:37:45.950Z,74.20
2019-05-17T23:43:56.736Z,74.00
2019-05-17T23:46:46.392Z,74.10
2019-05-17T23:49:16.658Z,74.30
2019-05-17T23:52:10.150Z,73.90
2019-05-17T23:54:40.315Z,73.90
2019-05-17T23:57:29.750Z,73.80
